createdAt,value
2019-05-30T00:00:43.643Z,915.8
2019-05-30T00:01:43.633Z,914.48
2019-05-30T00:02:43.640Z,913.2
2019-05-30T00:03:43.618Z,911.63
2019-05-30T00:04:43.653Z,911.15
2019-05-30T00:06:43.637Z,909.7
2019-05-30T00:07:43.662Z,909.42
2019-05-30T00:08:43.635Z,908.74
2019-05-30T00:09:43.643Z,907.66
2019-05-30T00:10:43.661Z,906.28
2019-05-30T00:11:43.645Z,904.96
2019-05-30T00:12:43.656Z,903.82
2019-05-30T00:13:43.658Z,903.17
2019-05-30T00:14:43.665Z,902.57
2019-05-30T00:15:43.655Z,902.22
2019-05-30T00:16:43.665Z,901.4
2019-05-30T00:17:43.644Z,900.43
2019-05-30T00:18:43.674Z,899.65
2019-05-30T00:19:43.656Z,899.51
2019-05-30T00:20:43.663Z,898.93
2019-05-30T00:21:43.652Z,898.46
2019-05-30T00:22:43.677Z,897.19
2019-05-30T00:23:43.647Z,896.5
2019-05-30T00:24:43.673Z,894.87
2019-05-30T00:25:43.678Z,893.58
2019-05-30T00:26:43.686Z,891.92
2019-05-30T00:27:43.650Z,891.47
2019-05-30T00:28:43.659Z,890.54
2019-05-30T00:29:43.700Z,889.8
2019-05-30T00:30:43.668Z,889.24
2019-05-30T00:31:43.679Z,888.71
2019-05-30T00:32:43.664Z,887.8
2019-05-30T00:33:43.732Z,887.48
2019-05-30T00:34:43.685Z,887.22
2019-05-30T00:36:43.698Z,886.2
2019-05-30T00:37:43.710Z,885.56
2019-05-30T00:38:43.712Z,885.61
2019-05-30T00:39:43.697Z,884.94
2019-05-30T00:40:43.705Z,884.31
2019-05-30T00:41:43.710Z,883.65
2019-05-30T00:42:43.714Z,882.61
2019-05-30T00:43:43.701Z,882.97
2019-05-30T00:44:43.724Z,883.48
2019-05-30T00:45:43.717Z,883.94
2019-05-30T00:46:43.722Z,884.09
2019-05-30T00:47:43.713Z,883.42
2019-05-30T00:48:43.713Z,883.36
2019-05-30T00:49:43.706Z,883.05
2019-05-30T00:50:43.709Z,882.15
2019-05-30T00:51:43.734Z,881.63
2019-05-30T00:52:43.736Z,880.93
2019-05-30T00:53:43.724Z,880.85
2019-05-30T00:54:43.715Z,881.37
2019-05-30T00:55:43.722Z,881.05
2019-05-30T00:56:43.729Z,881.71
2019-05-30T00:57:43.731Z,881.54
2019-05-30T00:58:43.737Z,881.53
2019-05-30T00:59:43.727Z,882.17
2019-05-30T01:00:44.253Z,881.93
2019-05-30T01:01:43.742Z,881.44
2019-05-30T01:02:43.759Z,881.3
2019-05-30T01:03:43.733Z,880.88
2019-05-30T01:04:43.782Z,880.71
2019-05-30T01:05:43.770Z,881.58
2019-05-30T01:06:43.768Z,880.96
2019-05-30T01:07:43.754Z,881.33
2019-05-30T01:08:43.773Z,881.36
2019-05-30T01:09:43.748Z,881.35
2019-05-30T01:10:43.737Z,881.32
2019-05-30T01:11:43.761Z,881.68
2019-05-30T01:12:43.811Z,881.6
2019-05-30T01:13:43.756Z,881.75
2019-05-30T01:14:43.762Z,881.67
2019-05-30T01:15:43.744Z,881.87
2019-05-30T01:16:43.793Z,881.94
2019-05-30T01:17:43.757Z,882.16
2019-05-30T01:18:44.072Z,881.95
2019-05-30T01:19:43.766Z,881.32
2019-05-30T01:20:43.751Z,880.68
2019-05-30T01:21:43.760Z,879.35
2019-05-30T01:22:43.769Z,877.98
2019-05-30T01:23:43.758Z,876.56
2019-05-30T01:24:43.747Z,876.16
2019-05-30T01:25:43.773Z,875.74
2019-05-30T01:26:43.791Z,876.05
2019-05-30T01:27:43.760Z,876.36
2019-05-30T01:28:43.767Z,876.17
2019-05-30T01:29:43.795Z,876.5
2019-05-30T01:30:58.815Z,875.9
2019-05-30T01:31:43.769Z,875.67
2019-05-30T01:32:43.777Z,874.57
2019-05-30T01:33:43.755Z,873.01
2019-05-30T01:34:43.784Z,871.54
2019-05-30T01:35:43.814Z,870.27
2019-05-30T01:36:43.779Z,868.89
2019-05-30T01:37:43.764Z,867.26
2019-05-30T01:38:43.794Z,865.7
2019-05-30T01:39:43.799Z,864.28
2019-05-30T01:40:43.799Z,863.41
2019-05-30T01:41:43.788Z,862.58
2019-05-30T01:42:43.786Z,862.5
2019-05-30T01:43:43.785Z,862.06
2019-05-30T01:44:43.792Z,861.07
2019-05-30T01:45:43.831Z,861.93
2019-05-30T01:46:43.801Z,861.34
2019-05-30T01:47:43.809Z,861.6
2019-05-30T01:48:43.828Z,861.18
2019-05-30T01:49:43.784Z,860.34
2019-05-30T01:50:44.143Z,859.43
2019-05-30T01:51:43.782Z,857.41
2019-05-30T01:52:43.806Z,856.44
2019-05-30T01:53:43.787Z,854.93
2019-05-30T01:54:43.777Z,854.14
2019-05-30T01:55:43.816Z,853.68
2019-05-30T01:56:44.069Z,853.1
2019-05-30T01:57:43.788Z,852.14
2019-05-30T01:58:43.795Z,851.74
2019-05-30T02:00:48.538Z,851.43
2019-05-30T02:01:24.569Z,851.18
2019-05-30T02:02:17.696Z,851.75
2019-05-30T02:03:17.683Z,852.04
2019-05-30T02:04:17.672Z,852.4
2019-05-30T02:05:17.690Z,852.19
2019-05-30T02:06:17.709Z,852.54
2019-05-30T02:07:17.677Z,852.88
2019-05-30T02:08:17.683Z,853.31
2019-05-30T02:09:17.794Z,853.8
2019-05-30T02:10:17.714Z,853.94
2019-05-30T02:11:17.683Z,853.9
2019-05-30T02:12:17.712Z,853.89
2019-05-30T02:13:18.662Z,853.92
2019-05-30T02:14:17.687Z,853.54
2019-05-30T02:15:17.695Z,853.16
2019-05-30T02:16:17.712Z,852.94
2019-05-30T02:17:17.724Z,852.24
2019-05-30T02:18:17.686Z,851.55
2019-05-30T02:19:17.714Z,851.02
2019-05-30T02:20:17.700Z,850.29
2019-05-30T02:21:17.712Z,849.81
2019-05-30T02:22:17.703Z,848.39
2019-05-30T02:23:17.705Z,848.21
2019-05-30T02:24:17.708Z,847
2019-05-30T02:25:17.720Z,845.88
2019-05-30T02:26:17.697Z,845.87
2019-05-30T02:27:17.725Z,845.48
2019-05-30T02:28:17.712Z,844.23
2019-05-30T02:29:17.803Z,844.28
2019-05-30T02:30:17.724Z,844.15
2019-05-30T02:31:35.057Z,843.44
2019-05-30T02:32:17.726Z,843.29
2019-05-30T02:33:17.729Z,842.69
2019-05-30T02:34:17.733Z,842.71
2019-05-30T02:35:17.736Z,842.89
2019-05-30T02:36:17.733Z,842.86
2019-05-30T02:37:17.717Z,842.77
2019-05-30T02:38:17.743Z,841.9
2019-05-30T02:39:17.753Z,841.52
2019-05-30T02:40:17.763Z,840.89
2019-05-30T02:41:17.753Z,840.92
2019-05-30T02:42:17.748Z,840.85
2019-05-30T02:43:17.753Z,840.35
2019-05-30T02:44:17.739Z,839.84
2019-05-30T02:45:17.724Z,839.83
2019-05-30T02:46:17.752Z,839.45
2019-05-30T02:47:22.043Z,838.17
2019-05-30T02:48:17.768Z,837.63
2019-05-30T02:49:17.757Z,836.96
2019-05-30T02:50:18.134Z,835.65
2019-05-30T02:51:17.767Z,834.86
2019-05-30T02:52:17.780Z,834.26
2019-05-30T02:53:17.766Z,833.67
2019-05-30T02:54:17.769Z,831.91
2019-05-30T02:55:17.775Z,831.39
2019-05-30T02:56:17.736Z,830.15
2019-05-30T02:57:17.745Z,829.41
2019-05-30T02:58:17.775Z,828.01
2019-05-30T02:59:17.757Z,827.44
2019-05-30T03:00:18.277Z,826.7
2019-05-30T03:01:17.782Z,825.97
2019-05-30T03:02:18.055Z,825.57
2019-05-30T03:03:17.765Z,825.44
2019-05-30T03:04:17.769Z,825.31
2019-05-30T03:05:17.775Z,824.41
2019-05-30T03:06:17.762Z,824.89
2019-05-30T03:07:17.760Z,824.73
2019-05-30T03:08:17.752Z,824.79
2019-05-30T03:09:17.754Z,824.8
2019-05-30T03:10:17.761Z,824.71
2019-05-30T03:11:17.786Z,824.95
2019-05-30T03:12:17.758Z,824.84
2019-05-30T03:13:17.800Z,824.69
2019-05-30T03:14:19.659Z,824.58
2019-05-30T03:15:17.783Z,823.86
2019-05-30T03:16:17.760Z,823.57
2019-05-30T03:17:17.789Z,822.58
2019-05-30T03:18:17.776Z,822.42
2019-05-30T03:19:17.779Z,823
2019-05-30T03:20:22.458Z,823.31
2019-05-30T03:21:17.772Z,823.65
2019-05-30T03:22:17.780Z,823.68
2019-05-30T03:23:17.799Z,823.62
2019-05-30T03:24:17.775Z,824.09
2019-05-30T03:25:17.872Z,824.09
2019-05-30T03:26:18.112Z,823.63
2019-05-30T03:27:17.776Z,824.63
2019-05-30T03:28:17.800Z,824.62
2019-05-30T03:29:17.785Z,824.91
2019-05-30T03:30:26.396Z,824.29
2019-05-30T03:31:27.606Z,823.04
2019-05-30T03:32:58.792Z,822.23
2019-05-30T03:33:46.222Z,818.96
2019-05-30T03:34:46.212Z,816.75
2019-05-30T03:35:46.230Z,814.89
2019-05-30T03:36:46.231Z,813.73
2019-05-30T03:37:46.241Z,811.66
2019-05-30T03:38:46.222Z,810.65
2019-05-30T03:39:46.503Z,810.81
2019-05-30T03:40:46.194Z,810.4
2019-05-30T03:41:46.205Z,811.14
2019-05-30T03:42:46.195Z,810.99
2019-05-30T03:43:46.248Z,812.48
2019-05-30T03:44:46.225Z,812.74
2019-05-30T03:45:46.231Z,812.59
2019-05-30T03:46:46.234Z,813.35
2019-05-30T03:47:46.223Z,813.02
2019-05-30T03:48:46.236Z,812.5
2019-05-30T03:49:46.219Z,812.04
2019-05-30T03:50:46.242Z,812.54
2019-05-30T03:51:46.234Z,812.78
2019-05-30T03:52:46.216Z,813.5
2019-05-30T03:53:46.240Z,814.39
2019-05-30T03:54:46.247Z,815.75
2019-05-30T03:55:46.230Z,815.96
2019-05-30T03:56:46.220Z,817.45
2019-05-30T03:57:46.253Z,818.58
2019-05-30T03:58:46.232Z,819.86
2019-05-30T03:59:46.258Z,821.08
2019-05-30T04:00:50.049Z,821.8
2019-05-30T04:01:46.517Z,822.26
2019-05-30T04:02:56.949Z,823.22
2019-05-30T04:03:46.308Z,823.78
2019-05-30T04:04:46.260Z,823.94
2019-05-30T04:05:46.276Z,823.32
2019-05-30T04:06:46.255Z,823.24
2019-05-30T04:07:46.253Z,822.48
2019-05-30T04:08:46.260Z,822.61
2019-05-30T04:09:46.265Z,822.35
2019-05-30T04:10:46.255Z,821.44
2019-05-30T04:11:46.236Z,820.51
2019-05-30T04:12:46.257Z,820.42
2019-05-30T04:13:46.258Z,820.03
2019-05-30T04:14:46.259Z,819.64
2019-05-30T04:15:46.254Z,818.83
2019-05-30T04:16:46.272Z,818.07
2019-05-30T04:17:46.256Z,817.55
2019-05-30T04:18:46.281Z,817.1
2019-05-30T04:19:46.294Z,816.4
2019-05-30T04:20:46.257Z,816.44
2019-05-30T04:21:46.284Z,816.05
2019-05-30T04:22:46.282Z,815.93
2019-05-30T04:23:46.254Z,815.83
2019-05-30T04:24:46.263Z,816.23
2019-05-30T04:25:46.270Z,816.33
2019-05-30T04:26:46.252Z,817.04
2019-05-30T04:27:46.265Z,817.26
2019-05-30T04:28:46.308Z,817.9
2019-05-30T04:29:46.282Z,818.69
2019-05-30T04:30:46.594Z,819.53
2019-05-30T04:31:46.290Z,820.24
2019-05-30T04:32:46.299Z,821.42
2019-05-30T04:33:46.290Z,822.47
2019-05-30T04:34:46.292Z,823.22
2019-05-30T04:35:46.285Z,824.19
2019-05-30T04:36:46.301Z,825.32
2019-05-30T04:37:46.280Z,826.22
2019-05-30T04:38:46.274Z,827.64
2019-05-30T04:39:46.269Z,828.2
2019-05-30T04:40:46.298Z,829.39
2019-05-30T04:41:46.510Z,829.63
2019-05-30T04:42:46.270Z,830.81
2019-05-30T04:43:46.313Z,831.97
2019-05-30T04:44:46.295Z,832.49
2019-05-30T04:45:46.289Z,834.44
2019-05-30T04:46:46.317Z,836.27
2019-05-30T04:47:46.282Z,837.73
2019-05-30T04:48:46.369Z,839.08
2019-05-30T04:49:46.321Z,840.12
2019-05-30T04:50:46.305Z,842.39
2019-05-30T04:51:46.310Z,843.35
2019-05-30T04:52:46.338Z,844.68
2019-05-30T04:53:46.324Z,845.96
2019-05-30T04:54:46.307Z,847.59
2019-05-30T04:55:46.319Z,848.55
2019-05-30T04:56:46.301Z,850.19
2019-05-30T04:57:46.327Z,851.69
2019-05-30T04:58:46.319Z,852.53
2019-05-30T04:59:46.316Z,853.78
2019-05-30T05:00:46.301Z,854.75
2019-05-30T05:01:46.340Z,856.65
2019-05-30T05:02:46.323Z,857.91
2019-05-30T05:03:46.960Z,859.86
2019-05-30T05:04:46.566Z,860.73
2019-05-30T05:05:46.342Z,862.61
2019-05-30T05:06:46.317Z,864.25
2019-05-30T05:07:46.316Z,866.08
2019-05-30T05:08:46.329Z,868.15
2019-05-30T05:09:46.308Z,870.1
2019-05-30T05:10:46.319Z,872.5
2019-05-30T05:11:46.337Z,874.33
2019-05-30T05:12:46.323Z,876.98
2019-05-30T05:13:46.407Z,879.12
2019-05-30T05:14:46.382Z,881.02
2019-05-30T05:15:46.361Z,883.51
2019-05-30T05:16:46.448Z,885.98
2019-05-30T05:17:46.342Z,887.68
2019-05-30T05:18:46.346Z,889.78
2019-05-30T05:19:46.318Z,892.09
2019-05-30T05:20:46.340Z,894.72
2019-05-30T05:21:46.349Z,896.94
2019-05-30T05:22:46.358Z,899.14
2019-05-30T05:23:46.397Z,901.24
2019-05-30T05:24:46.327Z,904.43
2019-05-30T05:25:59.674Z,906.29
2019-05-30T05:26:46.340Z,908.94
2019-05-30T05:27:46.344Z,911.13
2019-05-30T05:28:46.332Z,913.45
2019-05-30T05:29:46.356Z,915.82
2019-05-30T05:30:46.352Z,918.28
2019-05-30T05:31:46.355Z,920.63
2019-05-30T05:32:46.398Z,922.85
2019-05-30T05:33:56.017Z,924.74
2019-05-30T05:34:46.379Z,926.96
2019-05-30T05:35:46.402Z,928.83
2019-05-30T05:36:46.350Z,931.01
2019-05-30T05:37:46.381Z,934.12
2019-05-30T05:42:14.520Z,944.58
2019-05-30T05:43:14.531Z,946.74
2019-05-30T05:44:14.531Z,949.19
2019-05-30T05:45:14.506Z,951.45
2019-05-30T05:46:14.576Z,953.77
2019-05-30T05:47:14.494Z,955.67
2019-05-30T05:48:14.497Z,957.74
2019-05-30T05:49:14.545Z,960.13
2019-05-30T05:50:14.518Z,962.58
2019-05-30T05:51:14.527Z,964.11
2019-05-30T05:52:14.505Z,966.45
2019-05-30T05:53:14.530Z,968.74
2019-05-30T05:54:14.537Z,970.94
2019-05-30T05:55:14.514Z,973.08
2019-05-30T05:56:14.508Z,975.66
2019-05-30T05:57:14.648Z,977.62
2019-05-30T05:58:14.563Z,980.57
2019-05-30T05:59:14.583Z,983.12
2019-05-30T06:00:14.540Z,986.06
2019-05-30T06:01:14.522Z,989.3
2019-05-30T06:02:14.689Z,992
2019-05-30T06:03:16.620Z,994.58
2019-05-30T06:04:14.524Z,996.7
2019-05-30T06:05:14.538Z,999.11
2019-05-30T06:06:14.544Z,1000.52
2019-05-30T06:07:14.529Z,1003.23
2019-05-30T06:08:14.528Z,1006.67
2019-05-30T06:09:14.533Z,1009.92
2019-05-30T06:10:14.717Z,1013.89
2019-05-30T06:11:14.541Z,1018.24
2019-05-30T06:12:14.566Z,1021.66
2019-05-30T06:13:14.554Z,1025.1
2019-05-30T06:14:14.804Z,1028.17
2019-05-30T06:15:14.590Z,1031.28
2019-05-30T06:16:14.682Z,1034.7
2019-05-30T06:17:14.544Z,1037.46
2019-05-30T06:18:14.542Z,1040.29
2019-05-30T06:19:14.547Z,1044.01
2019-05-30T06:20:14.696Z,1047.02
2019-05-30T06:21:14.548Z,1049.35
2019-05-30T06:22:14.550Z,1051.69
2019-05-30T06:23:14.585Z,1053.94
2019-05-30T06:24:14.561Z,1055.75
2019-05-30T06:25:14.576Z,1057.91
2019-05-30T06:26:14.573Z,1061.1
2019-05-30T06:27:14.561Z,1066.9
2019-05-30T06:28:14.570Z,1075.45
2019-05-30T06:29:14.659Z,1084.08
2019-05-30T06:30:14.603Z,1091.93
2019-05-30T06:31:14.610Z,1099.21
2019-05-30T06:32:14.594Z,1106.01
2019-05-30T06:33:14.583Z,1112.39
2019-05-30T06:34:28.125Z,1118.24
2019-05-30T06:35:14.575Z,1123.27
2019-05-30T06:36:14.580Z,1127.25
2019-05-30T06:37:14.611Z,1130.51
2019-05-30T06:38:14.580Z,1133.3
2019-05-30T06:39:14.594Z,1136.08
2019-05-30T06:40:14.613Z,1138.09
2019-05-30T06:41:14.579Z,1139.72
2019-05-30T06:42:14.595Z,1140.95
2019-05-30T06:43:14.643Z,1141.89
2019-05-30T06:44:14.602Z,1142.35
2019-05-30T06:45:15.587Z,1142.53
2019-05-30T06:46:14.607Z,1142.4
2019-05-30T06:47:14.596Z,1142.14
2019-05-30T06:48:14.970Z,1141.52
2019-05-30T06:49:14.649Z,1140.67
2019-05-30T06:50:14.624Z,1139.7
2019-05-30T06:51:14.837Z,1138.65
2019-05-30T06:52:14.637Z,1137.46
2019-05-30T06:53:14.604Z,1136.39
2019-05-30T06:54:14.625Z,1135.37
2019-05-30T06:55:14.630Z,1134.1
2019-05-30T06:56:14.649Z,1132.75
2019-05-30T06:57:14.644Z,1131.3
2019-05-30T06:58:14.625Z,1129.76
2019-05-30T06:59:14.694Z,1127.93
2019-05-30T07:00:14.631Z,1126.25
2019-05-30T07:01:14.672Z,1124.62
2019-05-30T07:02:14.623Z,1122.74
2019-05-30T07:03:14.718Z,1120.75
2019-05-30T07:04:15.035Z,1118.73
2019-05-30T07:05:15.286Z,1116.44
2019-05-30T07:06:15.012Z,1114.39
2019-05-30T07:07:14.699Z,1112.93
2019-05-30T07:08:14.651Z,1111.54
2019-05-30T07:09:14.636Z,1109.9
2019-05-30T07:10:14.675Z,1108.58
2019-05-30T07:11:14.653Z,1107.57
2019-05-30T07:12:14.658Z,1106.34
2019-05-30T07:13:14.645Z,1104.39
2019-05-30T07:14:14.652Z,1102.61
2019-05-30T07:15:14.656Z,1101.32
2019-05-30T07:16:14.729Z,1100.38
2019-05-30T07:17:14.675Z,1099.76
2019-05-30T07:18:14.665Z,1099.35
2019-05-30T07:19:14.661Z,1099.02
2019-05-30T07:20:14.646Z,1098.11
2019-05-30T07:21:14.680Z,1097.35
2019-05-30T07:22:14.688Z,1096.28
2019-05-30T07:23:14.662Z,1095.47
2019-05-30T07:24:14.685Z,1094.84
2019-05-30T07:25:14.676Z,1093.92
2019-05-30T07:26:14.838Z,1093.4
2019-05-30T07:27:14.682Z,1092.74
2019-05-30T07:28:14.683Z,1092.35
2019-05-30T07:29:14.728Z,1091.63
2019-05-30T07:30:14.693Z,1091.23
2019-05-30T07:31:14.708Z,1090.92
2019-05-30T07:32:14.687Z,1091.42
2019-05-30T07:33:14.674Z,1092.28
2019-05-30T07:34:14.704Z,1093.27
2019-05-30T07:35:14.689Z,1093.76
2019-05-30T07:36:14.697Z,1093.49
2019-05-30T07:37:14.744Z,1093.71
2019-05-30T07:38:14.687Z,1093.89
2019-05-30T07:39:14.694Z,1095.03
2019-05-30T07:40:19.142Z,1096.7
2019-05-30T07:41:14.709Z,1098.62
2019-05-30T07:42:14.689Z,1100.27
2019-05-30T07:43:14.693Z,1102.05
2019-05-30T07:44:14.718Z,1103.84
2019-05-30T07:45:14.712Z,1104.88
2019-05-30T07:46:14.695Z,1105.32
2019-05-30T07:47:14.700Z,1105.55
2019-05-30T07:48:14.728Z,1105.36
2019-05-30T07:49:14.709Z,1105.22
2019-05-30T07:50:14.716Z,1104.58
2019-05-30T07:51:14.723Z,1104.5
2019-05-30T07:52:14.716Z,1104.78
2019-05-30T07:53:15.413Z,1106.04
2019-05-30T07:54:14.725Z,1106.39
2019-05-30T07:55:14.713Z,1107.09
2019-05-30T07:56:14.753Z,1107.76
2019-05-30T07:57:14.744Z,1107.48
2019-05-30T07:58:14.753Z,1106.5
2019-05-30T07:59:15.107Z,1104.96
2019-05-30T08:00:14.732Z,1103.85
2019-05-30T08:01:14.732Z,1102.64
2019-05-30T08:02:14.735Z,1102.72
2019-05-30T08:03:14.723Z,1103.38
2019-05-30T08:04:14.751Z,1103.82
2019-05-30T08:05:23.921Z,1104.11
2019-05-30T08:06:14.740Z,1104.25
2019-05-30T08:07:14.755Z,1104.28
2019-05-30T08:08:14.758Z,1103.26
2019-05-30T08:09:14.787Z,1102.15
2019-05-30T08:10:14.770Z,1100.95
2019-05-30T08:11:14.776Z,1100.37
2019-05-30T08:12:14.775Z,1099.83
2019-05-30T08:13:14.750Z,1099.63
2019-05-30T08:14:14.747Z,1099.86
2019-05-30T08:15:14.764Z,1100.54
2019-05-30T08:16:15.092Z,1101.26
2019-05-30T08:17:14.777Z,1100.91
2019-05-30T08:18:14.761Z,1100.47
2019-05-30T08:19:14.759Z,1099.62
2019-05-30T08:20:14.773Z,1098.43
2019-05-30T08:21:14.777Z,1097.46
2019-05-30T08:22:14.780Z,1096.44
2019-05-30T08:23:14.766Z,1096.23
2019-05-30T08:24:14.894Z,1096.39
2019-05-30T08:25:14.815Z,1095.16
2019-05-30T08:26:18.141Z,1094.31
2019-05-30T08:27:14.992Z,1093.38
2019-05-30T08:28:14.810Z,1092.18
2019-05-30T08:29:14.772Z,1090.41
2019-05-30T08:30:14.790Z,1089.16
2019-05-30T08:31:14.807Z,1087.68
2019-05-30T08:32:14.853Z,1085.48
2019-05-30T08:33:14.855Z,1083.26
2019-05-30T08:34:14.799Z,1081.21
2019-05-30T08:35:14.814Z,1079.43
2019-05-30T08:36:14.818Z,1077.24
2019-05-30T08:37:14.805Z,1075.27
2019-05-30T08:38:14.873Z,1074.01
2019-05-30T08:39:14.835Z,1072.93
2019-05-30T08:40:14.795Z,1072.03
2019-05-30T08:41:14.820Z,1071.88
2019-05-30T08:42:14.825Z,1071.78
2019-05-30T08:43:14.812Z,1071.4
2019-05-30T08:44:14.807Z,1070.91
2019-05-30T08:45:14.824Z,1071.16
2019-05-30T08:46:14.810Z,1071.96
2019-05-30T08:47:14.817Z,1072.88
2019-05-30T08:48:14.825Z,1073.5
2019-05-30T08:50:34.836Z,1074.93
2019-05-30T08:51:34.818Z,1075.41
2019-05-30T08:52:34.809Z,1075.37
2019-05-30T08:53:34.801Z,1074.72
2019-05-30T08:54:34.790Z,1073.58
2019-05-30T08:55:34.806Z,1071.93
2019-05-30T08:56:34.829Z,1069.54
2019-05-30T08:57:35.061Z,1066.8
2019-05-30T08:58:34.797Z,1063.94
2019-05-30T08:59:34.808Z,1061.09
2019-05-30T09:00:34.814Z,1057.91
2019-05-30T09:01:35.716Z,1055.24
2019-05-30T09:02:34.814Z,1052.24
2019-05-30T09:03:35.794Z,1049.23
2019-05-30T09:04:35.724Z,1046.43
2019-05-30T09:05:35.894Z,1044.49
2019-05-30T09:06:35.784Z,1042.55
2019-05-30T09:07:36.250Z,1040.9
2019-05-30T09:08:35.944Z,1040.72
2019-05-30T09:09:44.257Z,1040.22
2019-05-30T09:10:35.931Z,1040.87
2019-05-30T09:11:35.861Z,1041.18
2019-05-30T09:12:36.388Z,1040.36
2019-05-30T09:13:35.970Z,1040.87
2019-05-30T09:14:34.835Z,1040.46
2019-05-30T09:15:34.843Z,1039.41
2019-05-30T09:16:35.174Z,1038.25
2019-05-30T09:17:34.844Z,1037.67
2019-05-30T09:18:34.845Z,1036.96
2019-05-30T09:19:34.829Z,1037.14
2019-05-30T09:20:34.834Z,1037.77
2019-05-30T09:21:34.847Z,1038.2
2019-05-30T09:22:34.856Z,1037.81
2019-05-30T09:23:34.862Z,1036.7
2019-05-30T09:24:34.864Z,1035.95
2019-05-30T09:25:34.863Z,1036.65
2019-05-30T09:26:34.879Z,1036.67
2019-05-30T09:27:34.922Z,1036.41
2019-05-30T09:28:34.855Z,1035.69
2019-05-30T09:29:34.855Z,1034.6
2019-05-30T09:30:34.921Z,1036.21
2019-05-30T09:31:34.926Z,1037.39
2019-05-30T09:32:34.892Z,1036.98
2019-05-30T09:33:34.860Z,1034.99
2019-05-30T09:34:34.895Z,1033.07
2019-05-30T09:35:34.871Z,1032.57
2019-05-30T09:36:34.865Z,1030.19
2019-05-30T09:37:34.885Z,1028.64
2019-05-30T09:38:34.880Z,1027.84
2019-05-30T09:39:43.698Z,1029.03
2019-05-30T09:40:34.890Z,1029.44
2019-05-30T09:41:34.869Z,1027.99
2019-05-30T09:42:34.879Z,1026.36
2019-05-30T09:43:34.889Z,1024.73
2019-05-30T09:44:34.914Z,1023.11
2019-05-30T09:45:34.895Z,1020.7
2019-05-30T09:46:34.987Z,1018.79
2019-05-30T09:47:34.908Z,1018.44
2019-05-30T09:48:34.895Z,1018.42
2019-05-30T09:49:34.907Z,1018.7
2019-05-30T09:50:34.900Z,1019.52
2019-05-30T09:51:34.934Z,1020.74
2019-05-30T09:52:34.919Z,1022.9
2019-05-30T09:53:34.894Z,1025.26
2019-05-30T09:54:34.917Z,1026.82
2019-05-30T09:55:34.902Z,1026.77
2019-05-30T09:56:34.912Z,1025.15
2019-05-30T09:57:34.915Z,1023.71
2019-05-30T09:58:34.927Z,1022.98
2019-05-30T09:59:34.920Z,1023.05
2019-05-30T10:00:34.933Z,1022.47
2019-05-30T10:01:34.926Z,1022.91
2019-05-30T10:02:34.912Z,1022.67
2019-05-30T10:03:34.914Z,1021.51
2019-05-30T10:04:34.957Z,1020.6
2019-05-30T10:05:34.951Z,1020.38
2019-05-30T10:06:34.939Z,1019.54
2019-05-30T10:07:34.943Z,1019.43
2019-05-30T10:08:34.944Z,1019.34
2019-05-30T10:09:45.607Z,1020.74
2019-05-30T10:10:34.949Z,1022.64
2019-05-30T10:11:34.950Z,1025.9
2019-05-30T10:12:34.952Z,1028.79
2019-05-30T10:13:34.945Z,1031.17
2019-05-30T10:14:34.953Z,1033.38
2019-05-30T10:15:34.943Z,1035.17
2019-05-30T10:16:34.950Z,1037.59
2019-05-30T10:17:34.952Z,1038.82
2019-05-30T10:18:34.940Z,1038.24
2019-05-30T10:19:34.961Z,1037.4
2019-05-30T10:20:34.957Z,1036.7
2019-05-30T10:21:34.955Z,1035.31
2019-05-30T10:22:34.947Z,1032.2
2019-05-30T10:23:34.946Z,1030.72
2019-05-30T10:24:35.163Z,1031.02
2019-05-30T10:25:34.988Z,1031.57
2019-05-30T10:26:34.973Z,1031.65
2019-05-30T10:27:34.960Z,1031.96
2019-05-30T10:28:34.970Z,1033.18
2019-05-30T10:29:34.964Z,1034.11
2019-05-30T10:30:34.970Z,1033.31
2019-05-30T10:31:35.018Z,1032.22
2019-05-30T10:32:34.984Z,1031.46
2019-05-30T10:33:34.974Z,1030.58
2019-05-30T10:34:34.967Z,1031.09
2019-05-30T10:35:34.970Z,1032.28
2019-05-30T10:36:43.680Z,1031.09
2019-05-30T10:37:34.985Z,1028.36
2019-05-30T10:38:34.986Z,1026.09
2019-05-30T10:39:43.193Z,1023.99
2019-05-30T10:46:21.466Z,1022.08
2019-05-30T10:47:21.481Z,1022.85
2019-05-30T10:48:21.486Z,1021.86
2019-05-30T10:49:33.993Z,1019.53
2019-05-30T10:50:21.484Z,1018.09
2019-05-30T10:51:21.467Z,1015.66
2019-05-30T10:52:21.488Z,1011.93
2019-05-30T10:53:21.501Z,1009.46
2019-05-30T10:54:21.465Z,1007.25
2019-05-30T10:55:21.471Z,1004.82
2019-05-30T10:56:21.492Z,1002.9
2019-05-30T10:57:21.498Z,1001.93
2019-05-30T10:58:21.509Z,1001.37
2019-05-30T10:59:21.485Z,1002.36
2019-05-30T11:00:21.548Z,1002.95
2019-05-30T11:01:21.492Z,1003.65
2019-05-30T11:02:21.511Z,1004.71
2019-05-30T11:03:21.483Z,1006.18
2019-05-30T11:04:21.487Z,1006.89
2019-05-30T11:05:21.514Z,1006.75
2019-05-30T11:06:21.484Z,1007.19
2019-05-30T11:07:21.505Z,1008.69
2019-05-30T11:08:21.520Z,1009.42
2019-05-30T11:09:21.520Z,1007.73
2019-05-30T11:10:21.495Z,1006.41
2019-05-30T11:11:21.514Z,1005.43
2019-05-30T11:12:21.498Z,1004.7
2019-05-30T11:13:21.532Z,1006.05
2019-05-30T11:14:21.512Z,1007.57
2019-05-30T11:15:21.505Z,1008.6
2019-05-30T11:16:21.514Z,1009.9
2019-05-30T11:17:21.511Z,1010.35
2019-05-30T11:18:21.507Z,1009.86
2019-05-30T11:19:21.534Z,1008.69
2019-05-30T11:20:21.561Z,1006.42
2019-05-30T11:21:21.548Z,1003.92
2019-05-30T11:22:21.577Z,1001.99
2019-05-30T11:23:21.515Z,1001.25
2019-05-30T11:24:21.521Z,1000.81
2019-05-30T11:25:21.526Z,1000.31
2019-05-30T11:26:21.542Z,1000.3
2019-05-30T11:27:21.539Z,999.89
2019-05-30T11:28:21.569Z,999.66
2019-05-30T11:29:21.533Z,997.91
2019-05-30T11:30:21.561Z,998.73
2019-05-30T11:31:21.546Z,999.13
2019-05-30T11:32:21.532Z,999.21
2019-05-30T11:33:21.543Z,999.58
2019-05-30T11:34:21.549Z,1001.69
2019-05-30T11:35:21.557Z,1003.87
2019-05-30T11:36:21.548Z,1004.99
2019-05-30T11:37:21.546Z,1003.99
2019-05-30T11:38:21.554Z,1002.95
2019-05-30T11:39:21.542Z,1002.19
2019-05-30T11:40:21.585Z,1001.55
2019-05-30T11:41:21.551Z,1001.17
2019-05-30T11:42:21.556Z,999.54
2019-05-30T11:46:50.014Z,993.44
2019-05-30T11:47:49.999Z,991.7
2019-05-30T11:48:49.985Z,989.98
2019-05-30T11:49:50.018Z,987.65
2019-05-30T11:50:50.708Z,985.32
2019-05-30T11:51:51.630Z,982.96
2019-05-30T11:52:50.011Z,980.94
2019-05-30T11:53:49.994Z,979.51
2019-05-30T11:54:50.008Z,979.68
2019-05-30T11:55:50.177Z,980.45
2019-05-30T11:56:50.052Z,980.95
2019-05-30T11:57:50.070Z,982.09
2019-05-30T11:58:50.008Z,981.65
2019-05-30T11:59:50.103Z,981.86
2019-05-30T12:00:50.213Z,982.14
2019-05-30T12:01:50.222Z,983.02
2019-05-30T12:02:50.234Z,983.18
2019-05-30T12:03:50.504Z,983.09
2019-05-30T12:04:50.534Z,983.12
2019-05-30T12:05:50.432Z,984.01
2019-05-30T12:06:50.987Z,985.67
2019-05-30T12:07:50.684Z,987.17
2019-05-30T12:08:50.660Z,989.08
2019-05-30T12:09:50.752Z,990.42
2019-05-30T12:10:51.052Z,992.1
2019-05-30T12:11:50.939Z,992.86
2019-05-30T12:12:51.159Z,993.27
2019-05-30T12:13:51.721Z,993.76
2019-05-30T12:14:51.222Z,993.78
2019-05-30T12:15:51.242Z,994.25
2019-05-30T12:20:21.817Z,996.21
2019-05-30T12:21:21.846Z,995.48
2019-05-30T12:22:21.814Z,994.05
2019-05-30T12:23:21.804Z,992.05
2019-05-30T12:24:21.789Z,989.62
2019-05-30T12:25:21.796Z,988.02
2019-05-30T12:29:50.276Z,989.92
2019-05-30T12:30:56.378Z,989.71
2019-05-30T12:31:50.240Z,989.12
2019-05-30T12:32:50.247Z,988.64
2019-05-30T12:33:50.321Z,986.69
2019-05-30T12:34:50.250Z,984.74
2019-05-30T12:35:50.264Z,984.21
2019-05-30T12:36:50.272Z,984.39
2019-05-30T12:37:55.811Z,983.69
2019-05-30T12:38:50.264Z,982.36
2019-05-30T12:39:50.268Z,980.34
2019-05-30T12:40:50.258Z,978.13
2019-05-30T12:41:50.278Z,976.91
2019-05-30T12:42:53.741Z,976.49
2019-05-30T12:43:50.270Z,976
2019-05-30T12:44:50.275Z,975.25
2019-05-30T12:45:50.284Z,980.56